Share

Benezett, PA (15821)

Sylvan Heights (KPAEMPOR2) Elev 1166 ft | 41.51 °N, 78.21 °W | Change Station

Current weather conditions updated 0 second ago

Clear
Clear
35.5 °F
Feels Like 36 °F
N
0.0
Wind Variable Wind from NW
Gusts 2.0 mph
Sunrise 6:27 AM
Sunset 7:57 PM
Moon Waning Gibbous

Today is forecast to be Cooler than yesterday.

Pressure 30.29 in
Visibility 10.0 miles
Clouds Clear
Windchill 36 °F
Dew Point 33 °F
Humidity 92%
Rainfall 0.00 in
Snow Depth Not available.
UV 0 out of 16
Pollen 10.10 out of 12
Air Quality Not available.
Flu Activity Local Activity
METAR KFIG 190954Z AUTO 34003KT 10SM CLR 03/02 A3027 RMK AO2 SLP256 T00330017

More Conditions Fewer Conditions

Pressure 30.29 in
Visibility 10.0 miles
Clouds Clear
Windchill 36 °F
Dew Point 33 °F
Humidity 92%
Rainfall 0.00 in
Snow Depth Not available.
UV 0 out of 16
Pollen 10.10 out of 12
Air Quality Not available.
Flu Activity Local Activity
METAR KFIG 190954Z AUTO 34003KT 10SM CLR 03/02 A3027 RMK AO2 SLP256 T00330017

More Conditions Fewer Conditions

10-Day Weather Forecast

Almanac

Astronomy

Apr. 19, 2014 Rise Set
Actual Time 6:27 AM EDT 7:57 PM EDT
Civil Twilight 5:58 AM EDT 8:26 PM EDT
Nautical Twilight 5:23 AM EDT 9:01 PM EDT
Astronomical Twilight 4:46 AM EDT 9:39 PM EDT
Moon No Moon Rise 9:42 AM EDT
Length of Visible Light 14h 28m
Length of Day
13h 30m
Tomorrow will be 2m 33s longer.
Waning Gibbous, 81% of the Moon is Illuminated
Today
Waning Gibbous
Apr 22
Last Quarter
Apr 29
New
May 6
First Quarter
May 14
Full

Today's Extremes

State Highs State Lows

Community

  • Bleeding Hearts
    Bleeding Hearts
  • Sunset Silhouettes
    Sunset Silhouettes
  • FL sunset Perico Isle
    FL sunset Perico Isle
  • Cloudy spring view
    Cloudy spring view
  • Old barn
    Old barn

WunderPhotos

Upload Photos

1,702,681 photos uploaded!

WunderBlogs® & News

Nearby

Snow Depth

Station Depth Elevation
No new snow has been reported.

Coastal Water Temperatures

Place Temperature
No Stations Reporting

Earthquake Activity

City Distance Mag. Time & Date
No recent earthquake activity has been reported nearby.
Minimum magnitude displayed is 2.5.

Nearby Weather Stations

Station Location Temp. Windchill Dew Point Humidity Wind Precip. Elev Updated Type
Sterling Run, Driftwood, PA 40.8 °F 41 °F 37 °F 85% NW  at  0.0 mph 0.00 in / hr 932 ft 3:11 AM EDT Rapid Fire
Sylvan Heights, Emporium, PA 35.5 °F 36 °F 33 °F 92% NW  at  0.0 mph 0.00 in / hr 1166 ft 6:57 AM EDT Rapid Fire
Emerald Estates, Saint Marys, PA 36.8 °F 37 °F 32 °F 82% NW  at  1.0 mph 0.00 in / hr 1870 ft 6:57 AM EDT Rapid Fire
RAWS KENNEDY PRESERVE PA, Penfield, PA 39 °F 39 °F 31 °F 73% North  at  3 mph 0.00 in / hr 2121 ft 6:08 AM EDT MADIS
HADS ALVIN R BUSH LAKE NEAR WESTPORT PA, Westport, PA 37 °F 37 °F - - North  at  - 0.00 in / hr 930 ft 6:00 AM EDT MADIS

Show More Stations Show Fewer Stations

What do you think?

We're not finished. Please let us know what you like, what you don't like, and what you are still missing.